Time;durP1;ratioP1;P1;durP2;ratioP2;P2;SDS_P1;SDS_P2;PMS_P1;PMS_P2;Temp;Humidity;BMP_temperature;BMP_pressure;BME280_temperature;BME280_humidity;BME280_pressure;Samples;Min_cycle;Max_cycle;Signal;HPM_P1;HPM_P2
2022/05/27 00:01:33;;;;;;;7.43;3.80;;;13.70;99.90;;;;;;5052447;28;20414;-84
2022/05/27 00:04:01;;;;;;;9.47;4.60;;;13.70;99.90;;;;;;5052422;28;20180;-81
2022/05/27 00:06:28;;;;;;;10.20;4.40;;;13.70;99.90;;;;;;5034615;28;20517;-80
2022/05/27 00:08:54;;;;;;;11.00;4.20;;;13.70;99.90;;;;;;5034192;28;20484;-80
2022/05/27 00:11:22;;;;;;;7.27;3.13;;;13.70;99.90;;;;;;5051965;28;20561;-82
2022/05/27 00:13:49;;;;;;;8.27;4.40;;;13.70;99.90;;;;;;5025022;28;20984;-82
2022/05/27 00:16:17;;;;;;;13.00;4.43;;;13.60;99.90;;;;;;5032683;28;20424;-80
2022/05/27 00:18:43;;;;;;;9.27;4.97;;;13.60;99.90;;;;;;5032250;28;20423;-82
2022/05/27 00:21:09;;;;;;;5.97;2.73;;;13.60;99.90;;;;;;5014637;28;20482;-80
2022/05/27 00:23:37;;;;;;;5.87;2.67;;;13.60;99.90;;;;;;5035505;28;20179;-80
2022/05/27 00:26:02;;;;;;;7.50;4.40;;;13.60;99.90;;;;;;5035216;28;20472;-81
2022/05/27 00:28:28;;;;;;;10.33;4.27;;;13.60;99.90;;;;;;5051643;28;20470;-80
2022/05/27 00:30:54;;;;;;;5.53;3.67;;;13.70;99.90;;;;;;5056067;28;20219;-80
2022/05/27 00:33:19;;;;;;;8.70;3.97;;;13.70;99.90;;;;;;5055840;28;20194;-80
2022/05/27 00:35:45;;;;;;;7.23;3.60;;;13.60;99.90;;;;;;5056079;28;20200;-82
2022/05/27 00:38:12;;;;;;;11.57;4.10;;;13.70;99.90;;;;;;5056576;28;20184;-80
2022/05/27 00:40:41;;;;;;;7.40;2.80;;;13.70;99.90;;;;;;5058588;28;20709;-80
2022/05/27 00:43:07;;;;;;;4.67;2.70;;;13.60;99.90;;;;;;5056754;28;20517;-81
2022/05/27 00:45:36;;;;;;;8.60;3.50;;;13.60;99.90;;;;;;5055808;28;20524;-80
2022/05/27 00:48:05;;;;;;;7.03;3.33;;;13.60;99.90;;;;;;5055674;28;20207;-83
2022/05/27 00:50:35;;;;;;;7.23;2.70;;;13.60;99.90;;;;;;5055720;28;20420;-80
2022/05/27 00:53:05;;;;;;;5.20;2.60;;;13.50;99.90;;;;;;5038014;28;20508;-80
2022/05/27 00:55:36;;;;;;;9.40;3.07;;;13.50;99.90;;;;;;5055350;28;20430;-81
2022/05/27 00:58:17;;;;;;;7.77;3.53;;;13.50;99.90;;;;;;5057328;28;20418;-81
2022/05/27 01:00:43;;;;;;;8.90;3.50;;;13.50;99.90;;;;;;5060667;28;20419;-80
2022/05/27 01:03:12;;;;;;;10.30;3.97;;;13.50;99.90;;;;;;5057577;28;20904;-84
2022/05/27 01:05:40;;;;;;;9.13;3.20;;;13.50;99.90;;;;;;5053896;28;20542;-80
2022/05/27 01:08:08;;;;;;;7.70;3.30;;;13.50;99.90;;;;;;5054040;28;20482;-83
2022/05/27 01:10:51;;;;;;;10.43;2.87;;;13.50;99.90;;;;;;5055339;28;20419;-84
2022/05/27 01:13:40;;;;;;;7.73;3.80;;;13.50;99.90;;;;;;5055439;28;20461;-83
2022/05/27 01:16:20;;;;;;;6.30;2.97;;;13.60;99.90;;;;;;5055962;28;20423;-84
2022/05/27 01:22:22;;;;;;;7.17;2.80;;;13.70;99.90;;;;;;5034221;28;20775;-80
2022/05/27 01:25:08;;;;;;;6.77;3.10;;;13.70;99.90;;;;;;5034156;28;20422;-80
2022/05/27 01:28:13;;;;;;;10.80;3.50;;;13.70;99.90;;;;;;5035298;28;20456;-80
2022/05/27 01:31:03;;;;;;;6.80;2.57;;;13.70;99.90;;;;;;4994767;28;20435;-80
2022/05/27 01:33:59;;;;;;;8.87;2.83;;;13.60;99.90;;;;;;5034806;28;20423;-85
2022/05/27 01:36:48;;;;;;;9.00;2.50;;;13.60;99.90;;;;;;5035267;28;20450;-79
2022/05/27 01:39:36;;;;;;;5.57;2.37;;;13.60;99.90;;;;;;5017467;28;20436;-80
2022/05/27 01:42:32;;;;;;;10.10;3.10;;;13.60;99.90;;;;;;5034845;28;20924;-82
2022/05/27 01:45:14;;;;;;;9.93;2.70;;;13.50;99.90;;;;;;5035198;28;20415;-82
2022/05/27 01:47:54;;;;;;;9.57;2.50;;;13.50;99.90;;;;;;5035075;28;20513;-81
2022/05/27 01:50:48;;;;;;;5.13;2.13;;;13.50;99.90;;;;;;5035224;28;20426;-81
2022/05/27 01:53:32;;;;;;;8.00;1.83;;;13.40;99.90;;;;;;5034949;28;20515;-83
2022/05/27 01:56:33;;;;;;;7.17;1.20;;;13.40;99.90;;;;;;5016836;28;20919;-80
2022/05/27 01:59:05;;;;;;;3.07;1.53;;;13.40;99.90;;;;;;5034755;28;20422;-80
2022/05/27 02:01:35;;;;;;;8.83;1.83;;;13.40;99.90;;;;;;5034941;28;20503;-81
2022/05/27 02:04:07;;;;;;;7.60;1.07;;;13.30;99.90;;;;;;5034718;28;20421;-81
2022/05/27 02:06:50;;;;;;;6.17;1.50;;;13.30;99.90;;;;;;5034892;28;20840;-82
2022/05/27 02:09:35;;;;;;;8.17;1.40;;;13.20;99.90;;;;;;5034561;28;20597;-81
2022/05/27 02:12:13;;;;;;;8.00;1.47;;;13.10;99.90;;;;;;5034089;28;20759;-80
2022/05/27 02:14:50;;;;;;;8.20;2.00;;;13.00;99.90;;;;;;5034674;28;20931;-79
2022/05/27 02:17:25;;;;;;;8.90;1.43;;;13.00;99.90;;;;;;5034477;28;20415;-80
2022/05/27 02:20:00;;;;;;;5.27;0.47;;;13.00;99.90;;;;;;5034611;28;20423;-81
2022/05/27 02:22:30;;;;;;;5.77;0.83;;;12.90;99.90;;;;;;5016817;28;20460;-84
2022/05/27 02:25:20;;;;;;;8.43;0.97;;;12.90;99.90;;;;;;5016344;28;20423;-82
2022/05/27 02:27:58;;;;;;;10.40;1.60;;;12.80;99.90;;;;;;5034126;28;20455;-83
2022/05/27 02:30:29;;;;;;;8.00;1.50;;;12.90;99.90;;;;;;5016598;28;20427;-81
2022/05/27 02:35:51;;;;;;;4.73;1.00;;;12.80;99.90;;;;;;5034532;28;20503;-83
2022/05/27 02:38:17;;;;;;;12.47;1.40;;;12.80;99.90;;;;;;5016242;28;20426;-81
2022/05/27 02:41:00;;;;;;;6.50;1.17;;;12.80;99.90;;;;;;5033810;28;20419;-83
2022/05/27 02:43:52;;;;;;;15.23;1.40;;;12.80;99.90;;;;;;5034007;28;20405;-81
2022/05/27 02:47:13;;;;;;;12.27;3.00;;;12.70;99.90;;;;;;5033196;28;20473;-84
2022/05/27 02:49:58;;;;;;;8.37;1.93;;;12.60;99.90;;;;;;4934656;29;20454;-82
2022/05/27 02:52:31;;;;;;;5.03;1.27;;;12.50;99.90;;;;;;4918699;29;20826;-80
2022/05/27 02:55:16;;;;;;;7.90;1.03;;;12.40;99.90;;;;;;4996592;28;20420;-80
2022/05/27 02:57:45;;;;;;;7.13;0.97;;;12.20;99.90;;;;;;5033780;28;20468;-80
2022/05/27 03:00:15;;;;;;;3.57;0.87;;;12.10;99.90;;;;;;5016060;28;20512;-83
2022/05/27 03:02:41;;;;;;;3.53;0.73;;;12.10;99.90;;;;;;5033513;28;20518;-80
2022/05/27 03:05:16;;;;;;;8.40;1.40;;;12.10;99.90;;;;;;5015953;28;20501;-82
2022/05/27 03:08:06;;;;;;;8.03;1.43;;;12.10;99.90;;;;;;5033488;28;20203;-80
2022/05/27 03:11:02;;;;;;;6.93;1.27;;;12.10;99.90;;;;;;5033236;28;20917;-78
2022/05/27 03:13:52;;;;;;;10.57;1.67;;;12.10;99.90;;;;;;5033282;28;20524;-80
2022/05/27 03:16:35;;;;;;;8.30;2.00;;;12.10;99.90;;;;;;5033488;28;20423;-80
2022/05/27 03:19:17;;;;;;;5.13;1.33;;;12.10;99.90;;;;;;5015633;28;20776;-80
2022/05/27 03:21:51;;;;;;;8.60;1.03;;;12.20;99.90;;;;;;5033432;28;20422;-80
2022/05/27 03:24:41;;;;;;;11.37;1.87;;;12.10;99.90;;;;;;5015555;28;20417;-79
2022/05/27 03:27:37;;;;;;;8.13;1.10;;;12.10;99.90;;;;;;5015386;28;20445;-82
2022/05/27 03:30:24;;;;;;;7.50;1.50;;;12.00;99.90;;;;;;5033307;28;20439;-80
2022/05/27 03:33:11;;;;;;;6.80;1.30;;;12.00;99.90;;;;;;5015264;28;20422;-82
2022/05/27 03:35:55;;;;;;;4.57;1.07;;;12.10;99.90;;;;;;5033309;28;20480;-80
2022/05/27 03:38:34;;;;;;;5.20;1.17;;;12.10;99.90;;;;;;5035439;28;20442;-80
2022/05/27 03:41:20;;;;;;;7.50;0.83;;;12.10;99.90;;;;;;5022382;28;20910;-79
2022/05/27 03:43:49;;;;;;;9.40;0.87;;;12.10;99.90;;;;;;5017249;28;20511;-84
2022/05/27 03:46:30;;;;;;;10.37;1.20;;;12.10;99.90;;;;;;5032984;28;20417;-80
2022/05/27 03:48:55;;;;;;;12.97;1.30;;;12.10;99.90;;;;;;5032808;28;20469;-80
2022/05/27 03:51:31;;;;;;;6.77;1.40;;;12.20;99.90;;;;;;5033185;28;20494;-84
2022/05/27 03:54:03;;;;;;;6.30;1.20;;;12.20;99.90;;;;;;5032805;28;20553;-81
2022/05/27 03:56:32;;;;;;;4.67;0.90;;;12.10;99.90;;;;;;5014776;28;20830;-81
2022/05/27 03:58:58;;;;;;;7.73;1.13;;;12.20;99.90;;;;;;5032740;28;20852;-85
2022/05/27 04:01:29;;;;;;;7.70;0.97;;;12.10;99.90;;;;;;5032856;28;20441;-85
2022/05/27 04:03:57;;;;;;;11.03;0.77;;;12.20;99.90;;;;;;5032613;28;20914;-86
2022/05/27 04:06:23;;;;;;;4.30;1.27;;;12.20;99.90;;;;;;5032894;28;20900;-81
2022/05/27 04:08:48;;;;;;;7.53;1.03;;;12.30;99.90;;;;;;5032604;28;20523;-80
2022/05/27 04:11:14;;;;;;;6.00;0.50;;;12.30;99.90;;;;;;5032368;28;20419;-82
2022/05/27 04:13:39;;;;;;;7.60;0.97;;;12.30;99.90;;;;;;5014767;28;20594;-80
2022/05/27 04:16:05;;;;;;;11.77;1.50;;;12.30;99.90;;;;;;5032760;28;20263;-80
2022/05/27 04:18:31;;;;;;;10.03;1.13;;;12.30;99.90;;;;;;5032594;28;20166;-80
2022/05/27 04:20:56;;;;;;;4.93;0.70;;;12.30;99.90;;;;;;5032676;28;20179;-80
2022/05/27 04:23:22;;;;;;;2.73;0.67;;;12.30;99.90;;;;;;5032715;28;20233;-80
2022/05/27 04:25:49;;;;;;;6.03;1.20;;;12.20;99.90;;;;;;5032228;28;20170;-85
2022/05/27 04:28:14;;;;;;;4.80;0.47;;;12.10;99.90;;;;;;5032545;28;20212;-80
2022/05/27 04:30:41;;;;;;;8.53;2.00;;;12.10;99.90;;;;;;5032855;28;20406;-80
2022/05/27 04:33:07;;;;;;;6.33;1.00;;;12.20;99.90;;;;;;5032462;28;20168;-80
2022/05/27 04:35:33;;;;;;;7.23;2.00;;;12.10;99.90;;;;;;5032471;28;20462;-80
2022/05/27 04:37:59;;;;;;;5.50;0.90;;;12.10;99.90;;;;;;5024232;28;20466;-80
2022/05/27 04:40:24;;;;;;;6.50;0.90;;;12.00;99.90;;;;;;5014250;28;20179;-80
2022/05/27 04:42:50;;;;;;;9.80;1.23;;;12.00;99.90;;;;;;5032334;28;20171;-79
2022/05/27 04:45:15;;;;;;;6.20;0.67;;;12.00;99.90;;;;;;5032328;28;20531;-81
2022/05/27 04:47:41;;;;;;;4.37;1.10;;;12.10;99.90;;;;;;5032146;28;20191;-80
2022/05/27 04:50:09;;;;;;;4.47;0.70;;;12.10;99.90;;;;;;5032506;28;20209;-79
2022/05/27 04:52:39;;;;;;;7.23;1.17;;;12.20;99.90;;;;;;5032086;28;20586;-85
2022/05/27 04:55:08;;;;;;;9.03;1.20;;;12.10;99.90;;;;;;5031956;28;20421;-83
2022/05/27 04:57:41;;;;;;;10.63;1.30;;;12.10;99.90;;;;;;5032149;28;20432;-80
2022/05/27 05:00:12;;;;;;;6.20;1.13;;;12.10;99.90;;;;;;5032365;28;20415;-79
2022/05/27 05:02:42;;;;;;;4.23;1.10;;;12.20;84.70;;;;;;5031957;28;20427;-80
2022/05/27 05:05:08;;;;;;;12.10;2.73;;;12.20;42.40;;;;;;5032239;28;20501;-84
2022/05/27 05:07:35;;;;;;;2.00;0.60;;;12.30;1.00;;;;;;5032229;28;20934;-80
2022/05/27 05:10:01;;;;;;;4.20;1.03;;;12.20;34.40;;;;;;5036266;28;20421;-81
2022/05/27 05:12:36;;;;;;;6.90;0.80;;;12.30;90.60;;;;;;5035455;28;20459;-85
2022/05/27 05:15:02;;;;;;;13.03;1.20;;;12.30;12.70;;;;;;5018148;28;20181;-81
2022/05/27 05:17:27;;;;;;;6.33;0.63;;;12.30;1.00;;;;;;5035612;28;20918;-80
2022/05/27 05:19:55;;;;;;;6.03;0.63;;;12.40;1.00;;;;;;5038760;28;20595;-80
2022/05/27 05:22:22;;;;;;;8.87;0.77;;;12.40;1.00;;;;;;5040559;28;20269;-86
2022/05/27 05:24:48;;;;;;;3.97;0.73;;;12.60;1.00;;;;;;5035151;28;20425;-84
2022/05/27 05:27:14;;;;;;;4.97;0.80;;;12.70;1.00;;;;;;5036472;28;20894;-84
2022/05/27 05:29:40;;;;;;;4.00;0.77;;;12.80;99.90;;;;;;5024327;28;20527;-81
2022/05/27 05:32:05;;;;;;;3.53;0.67;;;13.00;99.90;;;;;;5036126;28;20190;-85
2022/05/27 05:34:34;;;;;;;9.43;1.43;;;13.30;1.00;;;;;;5035405;28;20509;-84
2022/05/27 05:36:59;;;;;;;3.57;0.87;;;13.30;99.90;;;;;;5035288;28;20491;-83
2022/05/27 05:39:25;;;;;;;4.80;0.80;;;13.40;47.80;;;;;;5035020;28;20510;-81
2022/05/27 05:42:02;;;;;;;6.20;0.87;;;13.60;1.00;;;;;;5035357;28;20522;-81
2022/05/27 05:44:30;;;;;;;6.80;1.10;;;13.70;99.90;;;;;;5035294;28;20502;-85
2022/05/27 05:46:55;;;;;;;7.80;1.33;;;13.80;70.20;;;;;;5035143;28;20456;-87
2022/05/27 05:49:24;;;;;;;8.73;1.17;;;14.00;1.00;;;;;;5034932;28;20508;-86
2022/05/27 05:51:52;;;;;;;7.73;0.80;;;14.10;1.00;;;;;;5035046;28;20466;-84
2022/05/27 05:54:20;;;;;;;4.83;0.70;;;14.40;99.90;;;;;;5034872;28;20419;-85
2022/05/27 05:56:52;;;;;;;5.63;1.23;;;14.70;1.00;;;;;;5035034;28;20502;-84
2022/05/27 05:59:19;;;;;;;4.80;0.87;;;14.90;99.90;;;;;;5034962;28;20432;-83
2022/05/27 06:01:48;;;;;;;4.80;1.03;;;15.10;99.90;;;;;;5017081;28;20448;-81
2022/05/27 06:04:14;;;;;;;7.53;0.50;;;15.00;99.90;;;;;;5034855;28;20422;-79
2022/05/27 06:06:40;;;;;;;4.43;0.93;;;15.00;1.00;;;;;;5034735;28;20463;-79
2022/05/27 06:09:07;;;;;;;3.80;1.13;;;15.00;36.60;;;;;;5034360;28;20206;-80
2022/05/27 06:11:33;;;;;;;6.77;0.80;;;14.90;1.00;;;;;;5034873;28;20447;-84
2022/05/27 06:14:02;;;;;;;2.43;0.73;;;15.00;98.40;;;;;;5034895;28;21053;-81
2022/05/27 06:16:28;;;;;;;4.43;0.73;;;15.20;1.00;;;;;;5034861;28;20413;-85
2022/05/27 06:18:53;;;;;;;6.63;1.17;;;15.10;99.90;;;;;;5034617;28;20421;-81
2022/05/27 06:21:18;;;;;;;7.50;1.00;;;15.40;1.00;;;;;;5034749;28;20245;-80
2022/05/27 06:23:47;;;;;;;7.30;2.53;;;15.80;1.00;;;;;;5034408;28;20171;-84
2022/05/27 06:26:13;;;;;;;6.67;1.70;;;15.80;1.00;;;;;;5034033;28;20183;-81
2022/05/27 06:34:26;;;;;;;10.10;1.40;;;14.40;1.00;;;;;;5034345;28;20417;-79
2022/05/27 06:36:53;;;;;;;7.43;1.00;;;14.40;99.90;;;;;;5034244;28;20416;-81
2022/05/27 06:39:19;;;;;;;6.23;1.60;;;15.50;1.00;;;;;;5033740;28;20936;-82
2022/05/27 06:41:45;;;;;;;3.83;1.20;;;16.30;99.90;;;;;;5016383;28;20500;-79
2022/05/27 06:44:11;;;;;;;3.03;0.50;;;17.00;99.90;;;;;;5033947;28;20510;-81
2022/05/27 06:46:37;;;;;;;5.83;0.83;;;17.10;99.90;;;;;;5034000;28;20210;-85
2022/05/27 06:49:05;;;;;;;5.30;0.87;;;17.50;99.90;;;;;;5033724;28;20215;-80
2022/05/27 06:51:31;;;;;;;4.43;0.57;;;18.10;99.90;;;;;;5033820;28;20415;-81
2022/05/27 06:53:56;;;;;;;7.80;0.90;;;16.40;99.90;;;;;;5016037;28;20938;-79
2022/05/27 06:56:22;;;;;;;5.37;0.70;;;16.20;99.90;;;;;;5033754;28;20447;-81
2022/05/27 06:58:48;;;;;;;5.20;0.73;;;16.60;99.90;;;;;;5033616;28;20173;-85
2022/05/27 07:01:13;;;;;;;4.50;0.67;;;15.50;99.90;;;;;;5033509;28;20246;-83
2022/05/27 07:03:39;;;;;;;2.77;1.00;;;19.20;99.90;;;;;;5015867;28;20182;-82
2022/05/27 07:06:07;;;;;;;6.80;1.13;;;18.60;87.30;;;;;;5040004;28;20550;-83
2022/05/27 07:08:33;;;;;;;7.03;0.90;;;20.00;78.40;;;;;;5025189;28;20658;-81
2022/05/27 07:10:59;;;;;;;6.07;1.33;;;16.80;99.90;;;;;;5041911;28;20452;-82
2022/05/27 07:13:24;;;;;;;4.90;0.60;;;15.50;99.90;;;;;;5041967;28;20487;-83
2022/05/27 07:15:50;;;;;;;5.37;0.77;;;15.90;99.90;;;;;;5043595;28;20254;-84
2022/05/27 07:18:17;;;;;;;12.00;1.67;;;16.40;99.90;;;;;;5025222;28;20218;-84
2022/05/27 07:20:44;;;;;;;3.87;0.60;;;18.00;99.90;;;;;;5042087;28;20181;-85
2022/05/27 07:23:10;;;;;;;7.60;0.93;;;17.90;99.90;;;;;;5022816;28;20456;-82
2022/05/27 07:25:35;;;;;;;4.40;0.63;;;16.10;99.90;;;;;;5041903;28;20454;-87
2022/05/27 07:28:06;;;;;;;5.83;1.30;;;15.20;99.90;;;;;;5042159;28;20302;-81
2022/05/27 07:30:35;;;;;;;7.03;0.60;;;15.60;99.90;;;;;;5042766;28;20171;-85
2022/05/27 07:33:04;;;;;;;5.00;0.90;;;16.20;99.90;;;;;;5042478;28;20414;-83
2022/05/27 07:35:30;;;;;;;6.50;0.97;;;16.80;99.90;;;;;;5041019;28;20837;-86
2022/05/27 07:37:56;;;;;;;6.37;0.80;;;19.20;67.10;;;;;;5043348;28;20463;-82
2022/05/27 07:40:22;;;;;;;4.97;1.50;;;17.10;35.40;;;;;;5024253;28;20176;-81
2022/05/27 07:42:48;;;;;;;5.50;0.70;;;18.20;57.20;;;;;;5040430;28;20538;-80
2022/05/27 07:45:16;;;;;;;4.93;0.63;;;19.60;37.90;;;;;;5040326;28;20416;-80
2022/05/27 07:47:44;;;;;;;4.47;0.70;;;21.20;23.60;;;;;;5040011;28;20428;-86
2022/05/27 07:50:13;;;;;;;3.77;0.90;;;21.70;5.80;;;;;;5040344;28;20482;-80
2022/05/27 07:52:42;;;;;;;4.10;0.80;;;20.40;1.00;;;;;;5037271;28;20409;-84
2022/05/27 07:55:08;;;;;;;4.30;0.50;;;21.70;1.00;;;;;;5032419;28;20497;-82
2022/05/27 07:57:34;;;;;;;3.67;0.63;;;22.60;1.00;;;;;;5014755;28;20428;-81
2022/05/27 08:00:15;;;;;;;6.73;1.00;;;20.70;1.00;;;;;;5032636;28;20431;-80
2022/05/27 08:02:41;;;;;;;3.43;0.70;;;19.80;1.00;;;;;;5032465;28;20167;-79
2022/05/27 08:05:12;;;;;;;4.97;0.40;;;17.80;1.00;;;;;;5032518;28;20429;-82
2022/05/27 08:07:38;;;;;;;7.90;1.10;;;17.70;1.00;;;;;;5032454;28;20177;-80
2022/05/27 08:10:07;;;;;;;4.93;0.83;;;18.30;2.00;;;;;;5032046;28;20426;-82
2022/05/27 08:12:33;;;;;;;5.03;0.60;;;17.90;1.00;;;;;;5040645;28;20221;-81
2022/05/27 08:14:59;;;;;;;5.43;1.00;;;20.70;5.70;;;;;;5023009;28;20538;-83
2022/05/27 08:17:24;;;;;;;2.03;0.50;;;22.20;1.00;;;;;;5025422;28;20929;-81
2022/05/27 08:19:52;;;;;;;6.33;0.50;;;21.90;1.00;;;;;;5046780;28;20175;-81
2022/05/27 08:22:18;;;;;;;4.20;1.03;;;22.20;1.00;;;;;;5052325;28;20664;-81
2022/05/27 08:24:43;;;;;;;3.10;0.60;;;23.00;1.00;;;;;;5052012;28;20434;-82
2022/05/27 08:27:09;;;;;;;4.00;0.87;;;22.80;1.00;;;;;;5024335;28;20423;-82
2022/05/27 08:29:35;;;;;;;3.43;0.70;;;20.80;1.00;;;;;;5039518;28;20296;-80
2022/05/27 08:32:04;;;;;;;5.63;1.00;;;18.80;1.00;;;;;;5031797;28;20180;-81
2022/05/27 08:40:11;;;;;;;5.00;1.07;;;18.20;1.00;;;;;;5032276;28;20460;-85
2022/05/27 08:42:51;;;;;;;3.83;1.10;;;20.90;1.00;;;;;;5032621;28;20426;-81
2022/05/27 08:45:32;;;;;;;5.93;1.30;;;21.70;1.00;;;;;;5022298;28;20419;-84
2022/05/27 08:48:03;;;;;;;5.03;1.57;;;21.80;1.00;;;;;;5037761;28;20995;-83
2022/05/27 08:50:43;;;;;;;3.90;0.93;;;22.50;1.00;;;;;;5018841;28;20411;-83
2022/05/27 08:53:27;;;;;;;4.30;0.80;;;22.70;1.00;;;;;;5029423;28;20514;-84
2022/05/27 09:02:00;;;;;;;5.97;1.10;;;19.50;1.00;;;;;;5035828;28;20407;-81
2022/05/27 09:04:29;;;;;;;4.40;1.47;;;22.20;1.00;;;;;;5037427;28;20409;-81
2022/05/27 09:07:14;;;;;;;3.20;0.97;;;23.30;1.00;;;;;;5039767;28;20405;-86
2022/05/27 09:09:41;;;;;;;5.20;2.00;;;22.20;1.00;;;;;;5035469;28;20512;-82
2022/05/27 09:12:10;;;;;;;5.30;1.00;;;22.80;1.00;;;;;;5035406;28;20445;-81
2022/05/27 09:14:38;;;;;;;4.23;1.07;;;22.90;1.00;;;;;;5035761;28;20417;-82
2022/05/27 09:17:11;;;;;;;5.37;1.37;;;23.60;1.00;;;;;;5035670;28;20417;-82
2022/05/27 09:20:10;;;;;;;5.50;0.90;;;23.60;1.00;;;;;;5035910;28;20417;-81
2022/05/27 09:22:54;;;;;;;5.10;1.20;;;20.20;1.00;;;;;;5035744;28;20466;-81
2022/05/27 09:25:55;;;;;;;3.57;1.17;;;18.40;1.00;;;;;;5035142;28;20495;-81
2022/05/27 09:28:29;;;;;;;3.70;1.40;;;18.40;1.00;;;;;;4990970;28;20568;-81
2022/05/27 09:30:57;;;;;;;8.47;1.23;;;18.30;1.00;;;;;;5035436;28;20419;-83
2022/05/27 09:33:26;;;;;;;3.37;0.97;;;17.90;1.00;;;;;;5017418;28;20430;-80
2022/05/27 09:36:20;;;;;;;5.57;0.60;;;17.50;1.00;;;;;;5035286;28;20409;-81
2022/05/27 09:38:52;;;;;;;7.73;0.83;;;17.60;1.00;;;;;;5034949;28;20414;-84
2022/05/27 09:41:43;;;;;;;5.60;1.37;;;17.30;1.00;;;;;;5035404;28;20505;-81
2022/05/27 09:44:19;;;;;;;6.30;1.10;;;18.10;1.00;;;;;;5028613;28;20420;-79
2022/05/27 09:46:45;;;;;;;2.50;0.70;;;20.30;1.00;;;;;;5035185;28;20405;-80
2022/05/27 09:49:10;;;;;;;5.37;0.70;;;21.10;1.00;;;;;;5035065;28;21048;-81
2022/05/27 09:51:37;;;;;;;3.93;0.57;;;21.30;1.00;;;;;;5035137;28;20171;-83
2022/05/27 09:54:46;;;;;;;4.83;0.90;;;22.10;1.00;;;;;;5034367;28;20174;-81
2022/05/27 09:57:12;;;;;;;5.03;1.03;;;22.40;1.00;;;;;;5014104;28;20460;-82
2022/05/27 09:59:47;;;;;;;7.33;1.10;;;22.40;1.00;;;;;;5034967;28;20437;-85
2022/05/27 10:02:22;;;;;;;7.10;1.40;;;23.10;1.00;;;;;;5034749;28;20466;-82
2022/05/27 10:05:13;;;;;;;6.03;1.07;;;23.20;1.00;;;;;;5034990;28;20928;-82
2022/05/27 10:07:52;;;;;;;4.67;1.60;;;22.80;1.00;;;;;;5016814;28;20405;-82
2022/05/27 10:10:23;;;;;;;5.83;1.03;;;22.00;1.00;;;;;;5034390;28;20770;-84
2022/05/27 10:12:49;;;;;;;5.77;1.37;;;22.70;1.00;;;;;;5034337;28;20456;-83
2022/05/27 10:15:25;;;;;;;7.40;1.23;;;22.70;1.00;;;;;;5034531;28;20503;-82
2022/05/27 10:17:51;;;;;;;5.77;1.33;;;22.90;1.00;;;;;;5016693;28;20449;-82
2022/05/27 10:20:33;;;;;;;10.43;2.13;;;23.40;1.00;;;;;;5034461;28;20448;-87
2022/05/27 10:23:03;;;;;;;6.90;1.13;;;22.50;1.00;;;;;;5034429;28;20193;-82
2022/05/27 10:25:43;;;;;;;10.83;2.10;;;19.90;1.00;;;;;;5034040;28;20412;-82
2022/05/27 10:28:21;;;;;;;5.47;0.63;;;18.50;1.00;;;;;;5024445;28;20500;-82
2022/05/27 10:30:56;;;;;;;5.13;0.70;;;18.10;1.00;;;;;;5034237;28;20420;-82
2022/05/27 10:33:35;;;;;;;4.33;0.30;;;18.80;1.00;;;;;;5034046;28;20930;-79
2022/05/27 10:36:01;;;;;;;6.13;0.70;;;17.70;1.00;;;;;;5008969;28;20425;-82
2022/05/27 10:38:43;;;;;;;7.03;1.33;;;16.20;1.00;;;;;;5033562;28;20414;-80
2022/05/27 10:41:39;;;;;;;3.27;0.30;;;17.90;1.00;;;;;;5016593;28;20426;-81
2022/05/27 10:44:21;;;;;;;4.77;0.87;;;20.10;1.00;;;;;;5034016;28;20400;-80
2022/05/27 10:46:58;;;;;;;2.80;0.73;;;20.40;1.00;;;;;;5016393;28;20418;-81
2022/05/27 10:49:51;;;;;;;3.97;0.93;;;21.20;1.00;;;;;;5033915;28;20504;-82
2022/05/27 10:52:22;;;;;;;7.73;1.30;;;20.70;1.00;;;;;;5033922;28;20409;-82
2022/05/27 10:54:56;;;;;;;3.90;1.33;;;22.10;1.00;;;;;;5033370;28;20445;-81
2022/05/27 11:03:19;;;;;;;6.23;1.00;;;19.80;1.00;;;;;;5033653;28;20412;-84
2022/05/27 11:06:09;;;;;;;2.77;0.93;;;19.00;1.00;;;;;;5015319;28;20427;-83
2022/05/27 11:09:01;;;;;;;2.93;0.60;;;19.00;1.00;;;;;;5015465;28;20484;-85
2022/05/27 11:11:56;;;;;;;6.50;1.17;;;18.10;1.00;;;;;;5033783;28;20818;-87
2022/05/27 11:17:41;;;;;;;3.70;1.60;;;16.40;59.20;;;;;;5033497;28;20406;-81
2022/05/27 11:20:33;;;;;;;7.27;1.00;;;15.70;99.90;;;;;;5039734;28;20814;-80
2022/05/27 11:23:36;;;;;;;7.93;0.93;;;16.40;32.00;;;;;;5028573;28;20421;-81
2022/05/27 11:26:31;;;;;;;6.13;1.20;;;18.50;1.00;;;;;;5029554;28;20427;-80
2022/05/27 11:29:25;;;;;;;6.13;0.60;;;19.70;99.90;;;;;;5033208;28;20469;-81
2022/05/27 11:31:58;;;;;;;4.13;0.93;;;20.60;99.90;;;;;;5033269;28;20492;-80
2022/05/27 11:34:38;;;;;;;3.90;0.80;;;19.30;99.90;;;;;;5033238;28;20508;-80
2022/05/27 11:37:40;;;;;;;4.77;1.37;;;18.00;99.90;;;;;;5033341;28;20415;-80
2022/05/27 11:40:35;;;;;;;5.40;1.10;;;18.60;99.90;;;;;;5032968;28;20431;-81
2022/05/27 11:43:12;;;;;;;6.30;1.17;;;19.80;99.90;;;;;;5012210;28;20504;-82
2022/05/27 11:45:59;;;;;;;5.97;1.03;;;20.10;99.90;;;;;;5015392;28;20479;-86
2022/05/27 11:48:55;;;;;;;7.63;1.87;;;19.00;99.90;;;;;;5032870;28;20468;-86
2022/05/27 11:51:39;;;;;;;5.03;1.53;;;17.90;99.90;;;;;;5032907;28;20405;-81
2022/05/27 11:54:11;;;;;;;4.90;1.40;;;17.10;99.90;;;;;;5032713;28;20426;-81
2022/05/27 11:57:11;;;;;;;7.53;1.63;;;16.80;99.90;;;;;;5033071;28;20787;-80
2022/05/27 11:59:46;;;;;;;7.73;1.53;;;19.10;99.90;;;;;;4990420;28;20932;-81
2022/05/27 12:02:46;;;;;;;5.53;0.93;;;18.90;99.90;;;;;;5032934;28;20501;-81
2022/05/27 12:05:17;;;;;;;5.20;0.93;;;19.30;97.60;;;;;;4996621;28;20435;-81
2022/05/27 12:07:57;;;;;;;3.13;0.60;;;18.60;79.10;;;;;;5032625;28;20425;-80
2022/05/27 12:10:26;;;;;;;5.63;1.00;;;17.70;78.70;;;;;;5032454;28;20413;-82
2022/05/27 12:13:14;;;;;;;14.67;2.93;;;16.60;99.90;;;;;;5032489;28;20444;-82
2022/05/27 12:15:48;;;;;;;6.43;1.47;;;16.40;1.00;;;;;;5032699;28;20408;-81
2022/05/27 12:18:22;;;;;;;5.87;1.13;;;16.10;99.90;;;;;;5035558;28;20913;-84
2022/05/27 12:20:48;;;;;;;6.30;1.20;;;16.40;99.90;;;;;;5036763;28;20846;-85
2022/05/27 12:23:13;;;;;;;8.53;0.67;;;16.60;1.00;;;;;;5036229;28;20409;-83
2022/05/27 12:25:46;;;;;;;7.07;1.50;;;18.00;99.90;;;;;;5036760;28;20454;-83
2022/05/27 12:28:15;;;;;;;6.07;0.80;;;18.70;1.00;;;;;;5036460;28;20207;-82
2022/05/27 12:30:43;;;;;;;7.77;1.53;;;19.70;99.90;;;;;;5036493;28;20431;-82
2022/05/27 12:33:16;;;;;;;6.07;1.10;;;19.60;99.90;;;;;;5036541;28;20916;-83
2022/05/27 12:36:00;;;;;;;6.70;1.30;;;17.90;99.90;;;;;;5036661;28;20451;-81
2022/05/27 12:38:28;;;;;;;7.40;1.60;;;17.30;99.90;;;;;;5036184;28;20476;-80
2022/05/27 12:41:00;;;;;;;8.07;1.40;;;17.10;99.90;;;;;;5036463;28;20827;-80
2022/05/27 12:43:54;;;;;;;5.80;0.83;;;16.40;99.90;;;;;;5036367;28;20936;-81
2022/05/27 12:46:28;;;;;;;7.00;0.70;;;17.30;99.90;;;;;;5036432;28;20778;-82
2022/05/27 12:48:56;;;;;;;4.90;0.97;;;17.90;99.90;;;;;;5038740;28;20889;-81
2022/05/27 12:51:22;;;;;;;5.97;1.03;;;17.40;73.50;;;;;;5038179;28;20761;-80
2022/05/27 12:53:58;;;;;;;3.93;0.70;;;17.60;71.00;;;;;;5018220;28;20436;-80
2022/05/27 13:02:25;;;;;;;5.50;0.80;;;17.80;71.30;;;;;;5036015;28;20810;-86
2022/05/27 13:04:52;;;;;;;5.13;0.50;;;18.00;39.80;;;;;;5036078;28;20500;-80
2022/05/27 13:07:45;;;;;;;4.27;0.70;;;19.10;32.70;;;;;;5018014;28;20476;-80
2022/05/27 13:10:17;;;;;;;7.83;0.80;;;18.90;14.60;;;;;;5011690;28;20828;-80
2022/05/27 13:12:42;;;;;;;5.10;0.60;;;19.00;10.10;;;;;;5017816;28;20471;-81
2022/05/27 13:15:31;;;;;;;4.53;0.73;;;19.10;6.80;;;;;;5035786;28;20441;-79
2022/05/27 13:18:09;;;;;;;7.57;1.33;;;19.20;7.10;;;;;;5035800;28;20182;-80
2022/05/27 13:21:11;;;;;;;9.27;1.80;;;19.70;5.10;;;;;;5035689;28;20519;-81
2022/05/27 13:23:51;;;;;;;4.40;1.13;;;19.90;7.80;;;;;;5038528;28;20494;-81
2022/05/27 13:26:51;;;;;;;3.93;0.60;;;19.40;3.20;;;;;;5042537;28;20443;-81
2022/05/27 13:29:26;;;;;;;7.03;1.20;;;17.90;1.00;;;;;;5034588;28;20466;-80
2022/05/27 13:32:01;;;;;;;6.30;1.40;;;16.90;18.10;;;;;;5035398;28;20447;-82
2022/05/27 13:34:40;;;;;;;5.80;0.93;;;16.00;99.90;;;;;;5018860;28;21400;-81
2022/05/27 13:37:13;;;;;;;5.30;0.70;;;15.50;1.00;;;;;;5035330;28;20420;-81
2022/05/27 13:39:51;;;;;;;3.37;0.80;;;14.90;99.90;;;;;;5034941;28;20748;-79
2022/05/27 13:42:35;;;;;;;5.33;1.37;;;15.10;1.00;;;;;;5035167;28;20409;-86
2022/05/27 13:45:14;;;;;;;5.70;0.50;;;16.20;1.00;;;;;;5035330;28;20418;-81
2022/05/27 13:47:48;;;;;;;7.60;1.10;;;16.90;99.90;;;;;;5035060;28;20466;-82
2022/05/27 13:50:32;;;;;;;5.13;1.43;;;17.20;99.90;;;;;;5035131;28;20544;-85
2022/05/27 13:53:07;;;;;;;4.27;0.60;;;17.10;99.90;;;;;;5034685;28;20969;-85
2022/05/27 13:55:32;;;;;;;3.80;1.00;;;17.60;99.90;;;;;;5035130;28;20417;-81
2022/05/27 13:58:03;;;;;;;3.77;0.70;;;17.70;99.90;;;;;;5034952;28;20507;-86
2022/05/27 14:00:38;;;;;;;5.00;0.70;;;17.40;99.90;;;;;;5034875;28;20251;-84
2022/05/27 14:03:08;;;;;;;4.47;0.70;;;17.20;99.90;;;;;;5009926;28;20446;-84
2022/05/27 14:05:35;;;;;;;4.67;0.70;;;17.40;99.90;;;;;;5034844;28;20426;-80